sensor_id;sensor_type;location;lat;lon;timestamp;P1;durP1;ratioP1;P2;durP2;ratioP2
32535;SDS011;18974;50.838;4.636;2022-10-16T00:03:34;3.13;;;1.00;;
32535;SDS011;18974;50.838;4.636;2022-10-16T00:06:00;1.63;;;0.60;;
32535;SDS011;18974;50.838;4.636;2022-10-16T00:08:26;4.22;;;0.90;;
32535;SDS011;18974;50.838;4.636;2022-10-16T00:10:52;6.13;;;1.55;;
32535;SDS011;18974;50.838;4.636;2022-10-16T00:13:23;1.42;;;0.70;;
32535;SDS011;18974;50.838;4.636;2022-10-16T00:15:49;1.17;;;0.60;;
32535;SDS011;18974;50.838;4.636;2022-10-16T00:18:15;3.47;;;0.60;;
32535;SDS011;18974;50.838;4.636;2022-10-16T00:20:40;3.50;;;0.88;;
32535;SDS011;18974;50.838;4.636;2022-10-16T00:23:06;1.35;;;0.80;;
32535;SDS011;18974;50.838;4.636;2022-10-16T00:25:33;2.85;;;0.65;;
32535;SDS011;18974;50.838;4.636;2022-10-16T00:27:59;1.67;;;0.68;;
32535;SDS011;18974;50.838;4.636;2022-10-16T00:30:25;0.50;;;0.50;;
32535;SDS011;18974;50.838;4.636;2022-10-16T00:32:53;5.50;;;1.10;;
32535;SDS011;18974;50.838;4.636;2022-10-16T00:35:18;3.58;;;0.80;;
32535;SDS011;18974;50.838;4.636;2022-10-16T00:37:44;1.33;;;0.93;;
32535;SDS011;18974;50.838;4.636;2022-10-16T00:40:10;6.93;;;1.00;;
32535;SDS011;18974;50.838;4.636;2022-10-16T00:42:36;4.00;;;0.77;;
32535;SDS011;18974;50.838;4.636;2022-10-16T00:45:02;1.08;;;0.80;;
32535;SDS011;18974;50.838;4.636;2022-10-16T00:47:29;1.27;;;0.80;;
32535;SDS011;18974;50.838;4.636;2022-10-16T00:50:02;1.60;;;0.90;;
32535;SDS011;18974;50.838;4.636;2022-10-16T00:52:33;3.85;;;0.85;;
32535;SDS011;18974;50.838;4.636;2022-10-16T00:54:59;2.78;;;0.88;;
32535;SDS011;18974;50.838;4.636;2022-10-16T00:57:27;2.53;;;0.70;;
32535;SDS011;18974;50.838;4.636;2022-10-16T00:59:53;1.45;;;0.73;;
32535;SDS011;18974;50.838;4.636;2022-10-16T01:02:20;1.35;;;0.75;;
32535;SDS011;18974;50.838;4.636;2022-10-16T01:04:47;1.83;;;0.90;;
32535;SDS011;18974;50.838;4.636;2022-10-16T01:07:34;0.98;;;0.70;;
32535;SDS011;18974;50.838;4.636;2022-10-16T01:10:23;1.10;;;0.70;;
32535;SDS011;18974;50.838;4.636;2022-10-16T01:13:05;1.20;;;0.80;;
32535;SDS011;18974;50.838;4.636;2022-10-16T01:15:51;4.32;;;0.90;;
32535;SDS011;18974;50.838;4.636;2022-10-16T01:18:37;2.38;;;0.80;;
32535;SDS011;18974;50.838;4.636;2022-10-16T01:21:22;1.15;;;0.70;;
32535;SDS011;18974;50.838;4.636;2022-10-16T01:24:02;1.60;;;0.85;;
32535;SDS011;18974;50.838;4.636;2022-10-16T01:26:37;2.78;;;0.75;;
32535;SDS011;18974;50.838;4.636;2022-10-16T01:29:34;1.45;;;0.82;;
32535;SDS011;18974;50.838;4.636;2022-10-16T01:32:19;2.15;;;0.90;;
32535;SDS011;18974;50.838;4.636;2022-10-16T01:38:10;2.95;;;1.02;;
32535;SDS011;18974;50.838;4.636;2022-10-16T01:40:51;2.33;;;0.95;;
32535;SDS011;18974;50.838;4.636;2022-10-16T01:43:24;2.03;;;0.82;;
32535;SDS011;18974;50.838;4.636;2022-10-16T01:45:53;3.20;;;1.02;;
32535;SDS011;18974;50.838;4.636;2022-10-16T01:48:20;1.52;;;0.88;;
32535;SDS011;18974;50.838;4.636;2022-10-16T01:51:05;4.55;;;1.30;;
32535;SDS011;18974;50.838;4.636;2022-10-16T01:53:35;1.35;;;0.95;;
32535;SDS011;18974;50.838;4.636;2022-10-16T01:56:02;2.47;;;1.02;;
32535;SDS011;18974;50.838;4.636;2022-10-16T01:58:33;7.82;;;0.85;;
32535;SDS011;18974;50.838;4.636;2022-10-16T02:01:03;1.13;;;0.90;;
32535;SDS011;18974;50.838;4.636;2022-10-16T02:03:32;3.30;;;0.93;;
32535;SDS011;18974;50.838;4.636;2022-10-16T02:05:59;3.00;;;1.00;;
32535;SDS011;18974;50.838;4.636;2022-10-16T02:08:26;2.83;;;1.00;;
32535;SDS011;18974;50.838;4.636;2022-10-16T02:10:57;2.22;;;1.10;;
32535;SDS011;18974;50.838;4.636;2022-10-16T02:13:35;2.28;;;1.00;;
32535;SDS011;18974;50.838;4.636;2022-10-16T02:16:06;3.70;;;0.95;;
32535;SDS011;18974;50.838;4.636;2022-10-16T02:18:32;3.97;;;0.98;;
32535;SDS011;18974;50.838;4.636;2022-10-16T02:26:41;3.95;;;1.33;;
32535;SDS011;18974;50.838;4.636;2022-10-16T02:29:14;10.52;;;1.15;;
32535;SDS011;18974;50.838;4.636;2022-10-16T02:31:43;5.75;;;1.42;;
32535;SDS011;18974;50.838;4.636;2022-10-16T02:34:16;1.40;;;0.90;;
32535;SDS011;18974;50.838;4.636;2022-10-16T02:36:43;4.28;;;1.05;;
32535;SDS011;18974;50.838;4.636;2022-10-16T02:39:11;1.08;;;0.98;;
32535;SDS011;18974;50.838;4.636;2022-10-16T02:41:37;6.47;;;1.45;;
32535;SDS011;18974;50.838;4.636;2022-10-16T02:44:03;1.92;;;1.00;;
32535;SDS011;18974;50.838;4.636;2022-10-16T02:46:29;2.80;;;1.23;;
32535;SDS011;18974;50.838;4.636;2022-10-16T02:48:54;3.33;;;1.00;;
32535;SDS011;18974;50.838;4.636;2022-10-16T02:51:20;1.33;;;1.10;;
32535;SDS011;18974;50.838;4.636;2022-10-16T02:53:46;1.63;;;1.20;;
32535;SDS011;18974;50.838;4.636;2022-10-16T02:56:11;3.92;;;0.85;;
32535;SDS011;18974;50.838;4.636;2022-10-16T02:58:37;9.43;;;1.20;;
32535;SDS011;18974;50.838;4.636;2022-10-16T03:01:03;1.73;;;1.10;;
32535;SDS011;18974;50.838;4.636;2022-10-16T03:03:28;2.00;;;1.23;;
32535;SDS011;18974;50.838;4.636;2022-10-16T03:05:54;4.15;;;1.33;;
32535;SDS011;18974;50.838;4.636;2022-10-16T03:08:20;4.97;;;1.20;;
32535;SDS011;18974;50.838;4.636;2022-10-16T03:10:48;2.33;;;1.02;;
32535;SDS011;18974;50.838;4.636;2022-10-16T03:13:15;4.18;;;1.20;;
32535;SDS011;18974;50.838;4.636;2022-10-16T03:15:40;2.63;;;1.38;;
32535;SDS011;18974;50.838;4.636;2022-10-16T03:18:06;1.70;;;1.05;;
32535;SDS011;18974;50.838;4.636;2022-10-16T03:20:32;4.35;;;1.40;;
32535;SDS011;18974;50.838;4.636;2022-10-16T03:22:58;2.25;;;1.40;;
32535;SDS011;18974;50.838;4.636;2022-10-16T03:25:23;2.35;;;1.30;;
32535;SDS011;18974;50.838;4.636;2022-10-16T03:27:49;1.73;;;1.33;;
32535;SDS011;18974;50.838;4.636;2022-10-16T03:30:15;3.42;;;1.38;;
32535;SDS011;18974;50.838;4.636;2022-10-16T03:32:41;3.25;;;1.20;;
32535;SDS011;18974;50.838;4.636;2022-10-16T03:35:08;3.33;;;1.60;;
32535;SDS011;18974;50.838;4.636;2022-10-16T03:37:34;2.67;;;1.33;;
32535;SDS011;18974;50.838;4.636;2022-10-16T03:40:00;1.95;;;1.15;;
32535;SDS011;18974;50.838;4.636;2022-10-16T03:42:25;3.40;;;1.20;;
32535;SDS011;18974;50.838;4.636;2022-10-16T03:44:51;3.65;;;1.30;;
32535;SDS011;18974;50.838;4.636;2022-10-16T03:47:17;7.45;;;1.70;;
32535;SDS011;18974;50.838;4.636;2022-10-16T03:49:46;3.45;;;1.35;;
32535;SDS011;18974;50.838;4.636;2022-10-16T03:52:12;4.20;;;1.58;;
32535;SDS011;18974;50.838;4.636;2022-10-16T03:54:38;3.17;;;1.63;;
32535;SDS011;18974;50.838;4.636;2022-10-16T03:57:04;4.55;;;1.73;;
32535;SDS011;18974;50.838;4.636;2022-10-16T03:59:29;1.95;;;1.30;;
32535;SDS011;18974;50.838;4.636;2022-10-16T04:01:55;3.35;;;1.52;;
32535;SDS011;18974;50.838;4.636;2022-10-16T04:04:21;2.33;;;1.60;;
32535;SDS011;18974;50.838;4.636;2022-10-16T04:06:47;3.65;;;1.48;;
32535;SDS011;18974;50.838;4.636;2022-10-16T04:09:12;2.60;;;1.65;;
32535;SDS011;18974;50.838;4.636;2022-10-16T04:11:38;3.72;;;1.83;;
32535;SDS011;18974;50.838;4.636;2022-10-16T04:14:04;2.67;;;1.50;;
32535;SDS011;18974;50.838;4.636;2022-10-16T04:16:30;2.65;;;1.30;;
32535;SDS011;18974;50.838;4.636;2022-10-16T04:18:55;5.25;;;1.80;;
32535;SDS011;18974;50.838;4.636;2022-10-16T04:21:21;5.28;;;1.73;;
32535;SDS011;18974;50.838;4.636;2022-10-16T04:23:47;7.47;;;1.95;;
32535;SDS011;18974;50.838;4.636;2022-10-16T04:26:14;6.05;;;1.75;;
32535;SDS011;18974;50.838;4.636;2022-10-16T04:28:39;3.42;;;1.63;;
32535;SDS011;18974;50.838;4.636;2022-10-16T04:31:05;4.53;;;1.63;;
32535;SDS011;18974;50.838;4.636;2022-10-16T04:33:31;5.20;;;1.83;;
32535;SDS011;18974;50.838;4.636;2022-10-16T04:35:58;6.00;;;1.65;;
32535;SDS011;18974;50.838;4.636;2022-10-16T04:38:24;2.17;;;1.63;;
32535;SDS011;18974;50.838;4.636;2022-10-16T04:40:50;5.30;;;2.10;;
32535;SDS011;18974;50.838;4.636;2022-10-16T04:43:16;2.60;;;1.73;;
32535;SDS011;18974;50.838;4.636;2022-10-16T04:45:42;3.30;;;1.80;;
32535;SDS011;18974;50.838;4.636;2022-10-16T04:48:07;4.30;;;1.65;;
32535;SDS011;18974;50.838;4.636;2022-10-16T04:50:33;4.03;;;1.90;;
32535;SDS011;18974;50.838;4.636;2022-10-16T04:52:58;3.90;;;1.80;;
32535;SDS011;18974;50.838;4.636;2022-10-16T04:55:25;3.40;;;1.60;;
32535;SDS011;18974;50.838;4.636;2022-10-16T04:57:50;5.65;;;1.52;;
32535;SDS011;18974;50.838;4.636;2022-10-16T05:00:16;8.45;;;1.63;;
32535;SDS011;18974;50.838;4.636;2022-10-16T05:02:41;4.50;;;1.95;;
32535;SDS011;18974;50.838;4.636;2022-10-16T05:05:07;2.42;;;1.77;;
32535;SDS011;18974;50.838;4.636;2022-10-16T05:07:33;5.50;;;1.83;;
32535;SDS011;18974;50.838;4.636;2022-10-16T05:09:59;2.33;;;1.85;;
32535;SDS011;18974;50.838;4.636;2022-10-16T05:12:24;4.10;;;1.80;;
32535;SDS011;18974;50.838;4.636;2022-10-16T05:14:50;6.82;;;2.08;;
32535;SDS011;18974;50.838;4.636;2022-10-16T05:17:15;5.30;;;2.00;;
32535;SDS011;18974;50.838;4.636;2022-10-16T05:19:41;3.63;;;1.67;;
32535;SDS011;18974;50.838;4.636;2022-10-16T05:22:07;8.93;;;2.22;;
32535;SDS011;18974;50.838;4.636;2022-10-16T05:24:32;5.93;;;1.80;;
32535;SDS011;18974;50.838;4.636;2022-10-16T05:26:58;9.05;;;2.25;;
32535;SDS011;18974;50.838;4.636;2022-10-16T05:29:24;6.93;;;2.35;;
32535;SDS011;18974;50.838;4.636;2022-10-16T05:31:50;11.45;;;1.67;;
32535;SDS011;18974;50.838;4.636;2022-10-16T05:34:16;4.68;;;2.15;;
32535;SDS011;18974;50.838;4.636;2022-10-16T05:36:42;5.22;;;2.92;;
32535;SDS011;18974;50.838;4.636;2022-10-16T05:39:10;5.10;;;2.00;;
32535;SDS011;18974;50.838;4.636;2022-10-16T05:41:36;5.45;;;2.05;;
32535;SDS011;18974;50.838;4.636;2022-10-16T05:44:03;4.28;;;2.10;;
32535;SDS011;18974;50.838;4.636;2022-10-16T05:46:30;7.60;;;1.85;;
32535;SDS011;18974;50.838;4.636;2022-10-16T05:48:56;4.45;;;1.92;;
32535;SDS011;18974;50.838;4.636;2022-10-16T05:51:22;7.70;;;2.13;;
32535;SDS011;18974;50.838;4.636;2022-10-16T05:53:48;3.42;;;1.80;;
32535;SDS011;18974;50.838;4.636;2022-10-16T05:56:14;11.65;;;2.90;;
32535;SDS011;18974;50.838;4.636;2022-10-16T05:58:40;4.13;;;1.83;;
32535;SDS011;18974;50.838;4.636;2022-10-16T06:01:16;6.00;;;1.98;;
32535;SDS011;18974;50.838;4.636;2022-10-16T06:03:43;4.30;;;2.13;;
32535;SDS011;18974;50.838;4.636;2022-10-16T06:06:10;8.13;;;2.50;;
32535;SDS011;18974;50.838;4.636;2022-10-16T06:08:38;4.38;;;1.88;;
32535;SDS011;18974;50.838;4.636;2022-10-16T06:11:06;4.70;;;1.55;;
32535;SDS011;18974;50.838;4.636;2022-10-16T06:13:33;4.18;;;1.80;;
32535;SDS011;18974;50.838;4.636;2022-10-16T06:15:59;4.00;;;2.08;;
32535;SDS011;18974;50.838;4.636;2022-10-16T06:18:26;3.45;;;1.88;;
32535;SDS011;18974;50.838;4.636;2022-10-16T06:20:52;7.88;;;2.20;;
32535;SDS011;18974;50.838;4.636;2022-10-16T06:23:18;5.32;;;1.88;;
32535;SDS011;18974;50.838;4.636;2022-10-16T06:25:44;4.63;;;1.83;;
32535;SDS011;18974;50.838;4.636;2022-10-16T06:28:09;5.88;;;2.03;;
32535;SDS011;18974;50.838;4.636;2022-10-16T06:30:35;6.90;;;2.40;;
32535;SDS011;18974;50.838;4.636;2022-10-16T06:33:00;4.35;;;2.47;;
32535;SDS011;18974;50.838;4.636;2022-10-16T06:35:26;3.72;;;2.33;;
32535;SDS011;18974;50.838;4.636;2022-10-16T06:37:52;5.18;;;2.40;;
32535;SDS011;18974;50.838;4.636;2022-10-16T06:40:18;5.70;;;2.00;;
32535;SDS011;18974;50.838;4.636;2022-10-16T06:42:44;4.60;;;2.22;;
32535;SDS011;18974;50.838;4.636;2022-10-16T06:45:10;4.40;;;2.00;;
32535;SDS011;18974;50.838;4.636;2022-10-16T06:47:35;6.10;;;2.58;;
32535;SDS011;18974;50.838;4.636;2022-10-16T06:50:01;5.03;;;2.13;;
32535;SDS011;18974;50.838;4.636;2022-10-16T06:52:28;7.00;;;2.50;;
32535;SDS011;18974;50.838;4.636;2022-10-16T06:54:54;8.80;;;2.55;;
32535;SDS011;18974;50.838;4.636;2022-10-16T06:57:19;7.25;;;2.92;;
32535;SDS011;18974;50.838;4.636;2022-10-16T06:59:45;10.43;;;2.58;;
32535;SDS011;18974;50.838;4.636;2022-10-16T07:02:11;7.35;;;2.60;;
32535;SDS011;18974;50.838;4.636;2022-10-16T07:04:36;4.88;;;2.40;;
32535;SDS011;18974;50.838;4.636;2022-10-16T07:07:02;6.40;;;2.90;;
32535;SDS011;18974;50.838;4.636;2022-10-16T07:09:27;4.95;;;2.60;;
32535;SDS011;18974;50.838;4.636;2022-10-16T07:11:53;4.65;;;2.40;;
32535;SDS011;18974;50.838;4.636;2022-10-16T07:14:20;3.88;;;2.20;;
32535;SDS011;18974;50.838;4.636;2022-10-16T07:16:46;4.45;;;2.13;;
32535;SDS011;18974;50.838;4.636;2022-10-16T07:19:13;3.92;;;2.40;;
32535;SDS011;18974;50.838;4.636;2022-10-16T07:21:40;4.32;;;2.20;;
32535;SDS011;18974;50.838;4.636;2022-10-16T07:24:07;7.55;;;2.33;;
32535;SDS011;18974;50.838;4.636;2022-10-16T07:26:37;5.53;;;2.20;;
32535;SDS011;18974;50.838;4.636;2022-10-16T07:29:04;2.65;;;2.05;;
32535;SDS011;18974;50.838;4.636;2022-10-16T07:31:31;5.20;;;2.20;;
32535;SDS011;18974;50.838;4.636;2022-10-16T07:33:58;5.55;;;2.70;;
32535;SDS011;18974;50.838;4.636;2022-10-16T07:36:24;2.83;;;1.88;;
32535;SDS011;18974;50.838;4.636;2022-10-16T07:38:50;4.03;;;2.30;;
32535;SDS011;18974;50.838;4.636;2022-10-16T07:41:17;5.00;;;2.10;;
32535;SDS011;18974;50.838;4.636;2022-10-16T07:43:51;3.90;;;2.15;;
32535;SDS011;18974;50.838;4.636;2022-10-16T07:46:18;4.57;;;2.10;;
32535;SDS011;18974;50.838;4.636;2022-10-16T07:48:45;7.20;;;3.03;;
32535;SDS011;18974;50.838;4.636;2022-10-16T07:51:13;4.97;;;2.50;;
32535;SDS011;18974;50.838;4.636;2022-10-16T07:53:43;3.38;;;2.00;;
32535;SDS011;18974;50.838;4.636;2022-10-16T07:56:08;3.47;;;2.15;;
32535;SDS011;18974;50.838;4.636;2022-10-16T07:58:35;4.63;;;3.38;;
32535;SDS011;18974;50.838;4.636;2022-10-16T08:01:04;6.72;;;2.33;;
32535;SDS011;18974;50.838;4.636;2022-10-16T08:03:33;3.13;;;2.03;;
32535;SDS011;18974;50.838;4.636;2022-10-16T08:06:00;3.60;;;2.20;;
32535;SDS011;18974;50.838;4.636;2022-10-16T08:08:27;3.75;;;2.13;;
32535;SDS011;18974;50.838;4.636;2022-10-16T08:10:53;5.43;;;2.42;;
32535;SDS011;18974;50.838;4.636;2022-10-16T08:13:19;2.70;;;1.98;;
32535;SDS011;18974;50.838;4.636;2022-10-16T08:15:45;4.47;;;1.73;;
32535;SDS011;18974;50.838;4.636;2022-10-16T08:18:12;5.78;;;1.90;;
32535;SDS011;18974;50.838;4.636;2022-10-16T08:20:39;3.28;;;1.80;;
32535;SDS011;18974;50.838;4.636;2022-10-16T08:23:05;5.38;;;1.60;;
32535;SDS011;18974;50.838;4.636;2022-10-16T08:25:33;4.75;;;1.73;;
32535;SDS011;18974;50.838;4.636;2022-10-16T08:27:59;3.47;;;1.75;;
32535;SDS011;18974;50.838;4.636;2022-10-16T08:30:25;2.90;;;1.60;;
32535;SDS011;18974;50.838;4.636;2022-10-16T08:32:51;3.15;;;1.52;;
32535;SDS011;18974;50.838;4.636;2022-10-16T08:35:16;5.32;;;1.42;;
32535;SDS011;18974;50.838;4.636;2022-10-16T08:37:42;5.35;;;1.27;;
32535;SDS011;18974;50.838;4.636;2022-10-16T08:40:25;5.30;;;1.80;;
32535;SDS011;18974;50.838;4.636;2022-10-16T08:51:15;3.08;;;1.50;;
32535;SDS011;18974;50.838;4.636;2022-10-16T08:56:49;4.88;;;1.52;;
32535;SDS011;18974;50.838;4.636;2022-10-16T08:59:15;3.15;;;1.23;;
32535;SDS011;18974;50.838;4.636;2022-10-16T09:01:44;5.53;;;1.15;;
32535;SDS011;18974;50.838;4.636;2022-10-16T09:07:17;5.53;;;0.93;;
32535;SDS011;18974;50.838;4.636;2022-10-16T09:09:56;5.82;;;1.17;;
32535;SDS011;18974;50.838;4.636;2022-10-16T09:12:48;7.88;;;1.52;;
32535;SDS011;18974;50.838;4.636;2022-10-16T09:15:35;3.70;;;0.60;;
32535;SDS011;18974;50.838;4.636;2022-10-16T09:18:15;4.13;;;0.88;;
32535;SDS011;18974;50.838;4.636;2022-10-16T09:24:14;2.70;;;1.05;;
32535;SDS011;18974;50.838;4.636;2022-10-16T09:29:14;6.82;;;1.10;;
32535;SDS011;18974;50.838;4.636;2022-10-16T09:31:42;2.92;;;0.68;;
32535;SDS011;18974;50.838;4.636;2022-10-16T09:34:17;7.82;;;0.80;;
32535;SDS011;18974;50.838;4.636;2022-10-16T09:37:09;5.25;;;1.15;;
32535;SDS011;18974;50.838;4.636;2022-10-16T09:39:52;8.40;;;1.17;;
32535;SDS011;18974;50.838;4.636;2022-10-16T09:44:52;8.13;;;1.58;;
32535;SDS011;18974;50.838;4.636;2022-10-16T09:47:25;4.65;;;0.75;;
32535;SDS011;18974;50.838;4.636;2022-10-16T09:52:20;5.25;;;1.30;;
32535;SDS011;18974;50.838;4.636;2022-10-16T09:55:19;3.28;;;0.70;;
32535;SDS011;18974;50.838;4.636;2022-10-16T09:57:55;5.55;;;0.80;;
32535;SDS011;18974;50.838;4.636;2022-10-16T10:00:23;1.55;;;0.70;;
32535;SDS011;18974;50.838;4.636;2022-10-16T10:02:49;3.00;;;0.80;;
32535;SDS011;18974;50.838;4.636;2022-10-16T10:05:26;4.78;;;1.35;;
32535;SDS011;18974;50.838;4.636;2022-10-16T10:07:57;10.23;;;1.20;;
32535;SDS011;18974;50.838;4.636;2022-10-16T10:10:25;6.65;;;1.20;;
32535;SDS011;18974;50.838;4.636;2022-10-16T10:12:54;5.90;;;1.63;;
32535;SDS011;18974;50.838;4.636;2022-10-16T10:15:20;3.03;;;1.10;;
32535;SDS011;18974;50.838;4.636;2022-10-16T10:17:55;3.22;;;1.00;;
32535;SDS011;18974;50.838;4.636;2022-10-16T10:22:52;4.03;;;0.98;;
32535;SDS011;18974;50.838;4.636;2022-10-16T10:33:30;8.77;;;2.40;;
32535;SDS011;18974;50.838;4.636;2022-10-16T10:39:00;7.78;;;1.23;;
32535;SDS011;18974;50.838;4.636;2022-10-16T10:53:09;4.22;;;1.02;;
32535;SDS011;18974;50.838;4.636;2022-10-16T11:01:11;8.48;;;2.05;;
32535;SDS011;18974;50.838;4.636;2022-10-16T11:03:46;3.38;;;0.80;;
32535;SDS011;18974;50.838;4.636;2022-10-16T11:06:36;4.22;;;1.00;;
32535;SDS011;18974;50.838;4.636;2022-10-16T11:09:21;3.78;;;0.88;;
32535;SDS011;18974;50.838;4.636;2022-10-16T11:17:32;2.67;;;0.70;;
32535;SDS011;18974;50.838;4.636;2022-10-16T11:20:18;11.02;;;1.17;;
32535;SDS011;18974;50.838;4.636;2022-10-16T11:23:00;3.35;;;0.80;;
32535;SDS011;18974;50.838;4.636;2022-10-16T11:25:32;1.70;;;0.77;;
32535;SDS011;18974;50.838;4.636;2022-10-16T11:28:12;3.10;;;0.70;;
32535;SDS011;18974;50.838;4.636;2022-10-16T11:33:22;2.13;;;0.55;;
32535;SDS011;18974;50.838;4.636;2022-10-16T11:35:53;6.00;;;0.98;;
32535;SDS011;18974;50.838;4.636;2022-10-16T11:44:12;3.80;;;0.60;;
32535;SDS011;18974;50.838;4.636;2022-10-16T11:49:27;4.03;;;0.77;;
32535;SDS011;18974;50.838;4.636;2022-10-16T11:52:10;1.58;;;0.85;;
32535;SDS011;18974;50.838;4.636;2022-10-16T11:54:58;3.38;;;0.80;;
32535;SDS011;18974;50.838;4.636;2022-10-16T11:57:31;5.25;;;0.93;;
32535;SDS011;18974;50.838;4.636;2022-10-16T12:00:08;2.03;;;0.90;;
32535;SDS011;18974;50.838;4.636;2022-10-16T12:08:13;4.00;;;0.77;;
32535;SDS011;18974;50.838;4.636;2022-10-16T12:10:42;3.78;;;0.70;;
32535;SDS011;18974;50.838;4.636;2022-10-16T12:13:29;1.73;;;0.60;;
32535;SDS011;18974;50.838;4.636;2022-10-16T12:18:37;1.58;;;1.05;;
32535;SDS011;18974;50.838;4.636;2022-10-16T12:21:04;1.40;;;0.80;;
32535;SDS011;18974;50.838;4.636;2022-10-16T12:23:31;2.70;;;0.98;;
32535;SDS011;18974;50.838;4.636;2022-10-16T12:26:01;4.65;;;0.80;;
32535;SDS011;18974;50.838;4.636;2022-10-16T12:28:28;4.22;;;1.50;;
32535;SDS011;18974;50.838;4.636;2022-10-16T12:31:00;2.78;;;0.85;;
32535;SDS011;18974;50.838;4.636;2022-10-16T12:33:29;3.72;;;0.75;;
32535;SDS011;18974;50.838;4.636;2022-10-16T12:35:57;1.92;;;0.82;;
32535;SDS011;18974;50.838;4.636;2022-10-16T12:38:26;6.15;;;0.80;;
32535;SDS011;18974;50.838;4.636;2022-10-16T12:46:19;3.50;;;0.80;;
32535;SDS011;18974;50.838;4.636;2022-10-16T12:48:48;7.30;;;0.90;;
32535;SDS011;18974;50.838;4.636;2022-10-16T12:51:22;2.25;;;0.70;;
32535;SDS011;18974;50.838;4.636;2022-10-16T12:54:01;3.78;;;0.65;;
32535;SDS011;18974;50.838;4.636;2022-10-16T13:00:10;1.40;;;0.52;;
32535;SDS011;18974;50.838;4.636;2022-10-16T13:15:52;3.28;;;0.80;;
32535;SDS011;18974;50.838;4.636;2022-10-16T13:21:19;1.60;;;0.57;;
32535;SDS011;18974;50.838;4.636;2022-10-16T13:24:08;5.32;;;0.70;;
32535;SDS011;18974;50.838;4.636;2022-10-16T13:29:09;3.90;;;1.10;;
32535;SDS011;18974;50.838;4.636;2022-10-16T13:31:36;6.80;;;0.90;;
32535;SDS011;18974;50.838;4.636;2022-10-16T13:34:03;4.38;;;1.08;;
32535;SDS011;18974;50.838;4.636;2022-10-16T13:36:34;5.30;;;0.93;;
32535;SDS011;18974;50.838;4.636;2022-10-16T13:41:37;2.25;;;0.77;;
32535;SDS011;18974;50.838;4.636;2022-10-16T13:44:03;3.90;;;1.13;;
32535;SDS011;18974;50.838;4.636;2022-10-16T13:46:30;3.05;;;1.25;;
32535;SDS011;18974;50.838;4.636;2022-10-16T13:49:03;1.85;;;1.17;;
32535;SDS011;18974;50.838;4.636;2022-10-16T13:51:39;2.33;;;1.02;;
32535;SDS011;18974;50.838;4.636;2022-10-16T13:54:05;3.08;;;1.17;;
32535;SDS011;18974;50.838;4.636;2022-10-16T13:56:33;3.15;;;1.02;;
32535;SDS011;18974;50.838;4.636;2022-10-16T14:01:29;9.52;;;1.00;;
32535;SDS011;18974;50.838;4.636;2022-10-16T14:06:28;1.95;;;0.82;;
32535;SDS011;18974;50.838;4.636;2022-10-16T14:08:59;4.03;;;0.88;;
32535;SDS011;18974;50.838;4.636;2022-10-16T14:11:29;2.08;;;0.77;;
32535;SDS011;18974;50.838;4.636;2022-10-16T14:13:55;5.47;;;1.00;;
32535;SDS011;18974;50.838;4.636;2022-10-16T14:16:26;2.78;;;1.00;;
32535;SDS011;18974;50.838;4.636;2022-10-16T14:18:56;2.65;;;0.90;;
32535;SDS011;18974;50.838;4.636;2022-10-16T14:21:26;2.47;;;0.80;;
32535;SDS011;18974;50.838;4.636;2022-10-16T14:23:53;4.43;;;1.00;;
32535;SDS011;18974;50.838;4.636;2022-10-16T14:26:20;3.05;;;0.70;;
32535;SDS011;18974;50.838;4.636;2022-10-16T14:28:48;8.90;;;1.00;;
32535;SDS011;18974;50.838;4.636;2022-10-16T14:31:32;2.63;;;0.90;;
32535;SDS011;18974;50.838;4.636;2022-10-16T14:33:59;1.73;;;0.60;;
32535;SDS011;18974;50.838;4.636;2022-10-16T14:36:25;3.40;;;0.90;;
32535;SDS011;18974;50.838;4.636;2022-10-16T14:39:06;6.03;;;0.90;;
32535;SDS011;18974;50.838;4.636;2022-10-16T14:41:44;2.63;;;1.13;;
32535;SDS011;18974;50.838;4.636;2022-10-16T14:44:12;2.33;;;0.70;;
32535;SDS011;18974;50.838;4.636;2022-10-16T14:46:40;3.03;;;0.63;;
32535;SDS011;18974;50.838;4.636;2022-10-16T14:51:39;4.45;;;1.02;;
32535;SDS011;18974;50.838;4.636;2022-10-16T14:54:07;4.28;;;1.20;;
32535;SDS011;18974;50.838;4.636;2022-10-16T14:56:40;1.58;;;0.80;;
32535;SDS011;18974;50.838;4.636;2022-10-16T14:59:19;2.33;;;0.75;;
32535;SDS011;18974;50.838;4.636;2022-10-16T15:01:49;2.38;;;1.00;;
32535;SDS011;18974;50.838;4.636;2022-10-16T15:04:15;1.77;;;0.98;;
32535;SDS011;18974;50.838;4.636;2022-10-16T15:06:41;6.40;;;1.65;;
32535;SDS011;18974;50.838;4.636;2022-10-16T15:09:07;3.00;;;1.30;;
32535;SDS011;18974;50.838;4.636;2022-10-16T15:11:33;4.55;;;1.00;;
32535;SDS011;18974;50.838;4.636;2022-10-16T15:13:59;2.35;;;0.98;;
32535;SDS011;18974;50.838;4.636;2022-10-16T15:16:25;2.42;;;0.95;;
32535;SDS011;18974;50.838;4.636;2022-10-16T15:18:50;4.45;;;1.08;;
32535;SDS011;18974;50.838;4.636;2022-10-16T15:21:23;3.55;;;0.93;;
32535;SDS011;18974;50.838;4.636;2022-10-16T15:26:19;3.33;;;0.98;;
32535;SDS011;18974;50.838;4.636;2022-10-16T15:28:45;2.70;;;0.70;;
32535;SDS011;18974;50.838;4.636;2022-10-16T15:31:10;3.83;;;0.82;;
32535;SDS011;18974;50.838;4.636;2022-10-16T15:33:36;2.38;;;0.57;;
32535;SDS011;18974;50.838;4.636;2022-10-16T15:36:02;1.45;;;0.50;;
32535;SDS011;18974;50.838;4.636;2022-10-16T15:38:29;2.67;;;0.85;;
32535;SDS011;18974;50.838;4.636;2022-10-16T15:40:55;2.40;;;0.80;;
32535;SDS011;18974;50.838;4.636;2022-10-16T15:43:21;3.20;;;0.70;;
32535;SDS011;18974;50.838;4.636;2022-10-16T15:46:00;2.85;;;1.13;;
32535;SDS011;18974;50.838;4.636;2022-10-16T15:48:31;4.03;;;0.88;;
32535;SDS011;18974;50.838;4.636;2022-10-16T15:50:57;2.50;;;0.88;;
32535;SDS011;18974;50.838;4.636;2022-10-16T15:53:24;7.68;;;2.00;;
32535;SDS011;18974;50.838;4.636;2022-10-16T15:55:49;2.88;;;1.30;;
32535;SDS011;18974;50.838;4.636;2022-10-16T15:58:15;2.88;;;1.20;;
32535;SDS011;18974;50.838;4.636;2022-10-16T16:00:41;2.05;;;1.33;;
32535;SDS011;18974;50.838;4.636;2022-10-16T16:03:06;5.18;;;2.20;;
32535;SDS011;18974;50.838;4.636;2022-10-16T16:05:32;5.45;;;2.53;;
32535;SDS011;18974;50.838;4.636;2022-10-16T16:07:58;6.53;;;1.98;;
32535;SDS011;18974;50.838;4.636;2022-10-16T16:10:24;4.78;;;2.38;;
32535;SDS011;18974;50.838;4.636;2022-10-16T16:12:50;4.95;;;1.83;;
32535;SDS011;18974;50.838;4.636;2022-10-16T16:15:18;3.42;;;1.65;;
32535;SDS011;18974;50.838;4.636;2022-10-16T16:17:44;2.30;;;1.58;;
32535;SDS011;18974;50.838;4.636;2022-10-16T16:20:10;2.17;;;1.50;;
32535;SDS011;18974;50.838;4.636;2022-10-16T16:22:36;2.97;;;1.40;;
32535;SDS011;18974;50.838;4.636;2022-10-16T16:25:02;4.50;;;1.98;;
32535;SDS011;18974;50.838;4.636;2022-10-16T16:27:28;2.72;;;1.55;;
32535;SDS011;18974;50.838;4.636;2022-10-16T16:29:57;2.67;;;1.17;;
32535;SDS011;18974;50.838;4.636;2022-10-16T16:32:23;2.50;;;1.27;;
32535;SDS011;18974;50.838;4.636;2022-10-16T16:34:49;4.13;;;1.75;;
32535;SDS011;18974;50.838;4.636;2022-10-16T16:37:15;4.25;;;1.75;;
32535;SDS011;18974;50.838;4.636;2022-10-16T16:39:41;3.35;;;1.60;;
32535;SDS011;18974;50.838;4.636;2022-10-16T16:42:06;5.28;;;1.63;;
32535;SDS011;18974;50.838;4.636;2022-10-16T16:44:32;5.18;;;1.63;;
32535;SDS011;18974;50.838;4.636;2022-10-16T16:47:01;2.67;;;1.30;;
32535;SDS011;18974;50.838;4.636;2022-10-16T16:49:27;3.55;;;1.50;;
32535;SDS011;18974;50.838;4.636;2022-10-16T16:51:52;5.40;;;2.53;;
32535;SDS011;18974;50.838;4.636;2022-10-16T16:54:19;2.75;;;1.48;;
32535;SDS011;18974;50.838;4.636;2022-10-16T16:56:45;3.80;;;1.70;;
32535;SDS011;18974;50.838;4.636;2022-10-16T16:59:14;7.32;;;1.75;;
32535;SDS011;18974;50.838;4.636;2022-10-16T17:01:44;4.30;;;1.67;;
32535;SDS011;18974;50.838;4.636;2022-10-16T17:04:10;2.53;;;1.98;;
32535;SDS011;18974;50.838;4.636;2022-10-16T17:06:36;2.20;;;1.80;;
32535;SDS011;18974;50.838;4.636;2022-10-16T17:09:03;3.33;;;1.60;;
32535;SDS011;18974;50.838;4.636;2022-10-16T17:11:30;7.90;;;1.65;;